createdAt,value
2019-02-24T00:00:44.335Z,11.47
2019-02-24T00:06:18.094Z,11.41
2019-02-24T00:09:18.709Z,11.33
2019-02-24T00:11:51.850Z,11.27
2019-02-24T00:15:25.320Z,11.27
2019-02-24T00:18:11.420Z,11.23
2019-02-24T00:23:58.294Z,11.15
2019-02-24T00:30:13.390Z,11.09
2019-02-24T00:33:16.966Z,10.99
2019-02-24T00:35:49.559Z,10.97
2019-02-24T00:42:43.249Z,10.88
2019-02-24T00:44:59.044Z,10.91
2019-02-24T00:50:57.252Z,10.89
2019-02-24T00:57:19.011Z,10.96
2019-02-24T00:59:54.984Z,10.90
2019-02-24T01:05:38.173Z,10.94
2019-02-24T01:11:02.467Z,10.74
2019-02-24T01:18:00.711Z,10.80
2019-02-24T01:23:38.688Z,10.89
2019-02-24T01:26:40.826Z,10.86
2019-02-24T01:29:13.172Z,10.86
2019-02-24T01:35:42.416Z,10.83
2019-02-24T01:39:01.109Z,10.78
2019-02-24T01:41:22.925Z,10.77
2019-02-24T01:50:15.284Z,10.63
2019-02-24T01:56:19.156Z,10.61
2019-02-24T02:05:25.520Z,10.67
2019-02-24T02:11:32.209Z,10.60
2019-02-24T02:17:47.451Z,10.57
2019-02-24T02:21:05.917Z,10.65
2019-02-24T02:23:57.849Z,10.65
2019-02-24T02:27:18.108Z,10.64
2019-02-24T02:29:51.291Z,10.59
2019-02-24T02:32:54.847Z,10.42
2019-02-24T02:50:52.012Z,9.95
2019-02-24T03:02:50.611Z,9.89
2019-02-24T03:06:08.053Z,9.89
2019-02-24T03:12:37.812Z,9.89
2019-02-24T03:18:21.097Z,9.73
2019-02-24T03:21:16.646Z,9.85
2019-02-24T03:24:19.494Z,9.90
2019-02-24T03:27:24.632Z,9.91
2019-02-24T03:33:29.019Z,9.97
2019-02-24T03:39:34.432Z,9.81
2019-02-24T03:42:07.793Z,9.76
2019-02-24T03:47:27.415Z,9.84
2019-02-24T03:49:59.983Z,9.86
2019-02-24T03:52:52.335Z,9.83
2019-02-24T03:55:28.726Z,9.83
2019-02-24T03:58:38.912Z,9.87
2019-02-24T04:01:17.999Z,9.88
2019-02-24T04:04:27.745Z,9.82
2019-02-24T04:10:38.260Z,9.81
2019-02-24T04:20:20.986Z,9.70
2019-02-24T04:26:27.246Z,9.71
2019-02-24T04:29:31.229Z,9.63
2019-02-24T04:32:25.302Z,9.60
2019-02-24T04:35:00.348Z,9.43
2019-02-24T04:37:30.767Z,9.57
2019-02-24T04:40:04.444Z,9.58
2019-02-24T04:52:28.700Z,9.59
2019-02-24T04:55:40.927Z,9.52
2019-02-24T04:58:55.873Z,9.48
2019-02-24T05:02:01.120Z,9.46
2019-02-24T05:07:56.912Z,9.50
2019-02-24T05:10:29.019Z,9.58
2019-02-24T05:16:34.580Z,9.50
2019-02-24T05:22:11.431Z,9.56
2019-02-24T05:25:38.091Z,9.52
2019-02-24T05:28:07.703Z,9.49
2019-02-24T05:30:45.997Z,9.50
2019-02-24T05:46:08.287Z,9.50
2019-02-24T05:49:14.867Z,9.52
2019-02-24T05:55:06.675Z,9.47
2019-02-24T05:57:39.527Z,9.41
2019-02-24T06:00:36.974Z,9.46
2019-02-24T06:09:47.551Z,9.43
2019-02-24T06:18:20.660Z,9.49
2019-02-24T06:21:31.576Z,9.47
2019-02-24T06:24:33.311Z,9.48
2019-02-24T06:27:28.884Z,9.52
2019-02-24T06:30:04.813Z,9.45
2019-02-24T06:36:09.274Z,9.57
2019-02-24T06:38:41.795Z,9.69
2019-02-24T06:41:15.079Z,9.55
2019-02-24T06:43:49.156Z,9.63
2019-02-24T06:47:24.517Z,10.00
2019-02-24T06:50:34.892Z,10.50
2019-02-24T06:56:31.731Z,11.52
2019-02-24T07:02:18.345Z,11.89
2019-02-24T07:05:14.187Z,12.21
2019-02-24T07:07:45.989Z,12.53
2019-02-24T07:10:19.837Z,12.74
2019-02-24T07:16:44.177Z,12.88
2019-02-24T07:19:46.233Z,13.03
2019-02-24T07:22:58.590Z,13.12
2019-02-24T07:28:27.479Z,13.14
2019-02-24T07:34:59.233Z,12.89
2019-02-24T07:40:49.468Z,12.63
2019-02-24T07:46:57.893Z,12.80
2019-02-24T07:49:42.776Z,12.84
2019-02-24T08:05:40.263Z,13.13
2019-02-24T08:08:55.895Z,13.27
2019-02-24T08:11:29.538Z,13.45
2019-02-24T08:17:14.734Z,13.33
2019-02-24T08:19:46.369Z,13.33
2019-02-24T08:22:36.080Z,13.58
2019-02-24T08:25:27.120Z,13.62
2019-02-24T08:28:17.475Z,14.22
2019-02-24T08:31:09.703Z,14.01
2019-02-24T08:33:48.030Z,14.02
2019-02-24T08:36:19.748Z,13.86
2019-02-24T08:39:09.078Z,13.86
2019-02-24T08:41:39.403Z,13.86
2019-02-24T08:44:28.975Z,13.98
2019-02-24T08:50:09.508Z,14.47
2019-02-24T08:52:44.637Z,14.83
2019-02-24T08:55:15.625Z,14.90
2019-02-24T08:58:25.873Z,14.98
2019-02-24T09:01:10.002Z,14.94
2019-02-24T09:04:19.272Z,15.07
2019-02-24T09:06:55.404Z,15.02
2019-02-24T09:09:30.813Z,14.95
2019-02-24T09:12:03.101Z,15.29
2019-02-24T09:14:35.296Z,15.33
2019-02-24T09:17:06.275Z,15.61
2019-02-24T09:22:49.011Z,15.91
2019-02-24T09:25:21.048Z,15.84
2019-02-24T09:28:13.601Z,15.92
2019-02-24T09:31:04.106Z,16.01
2019-02-24T09:33:55.704Z,16.05
2019-02-24T09:36:47.015Z,16.01
2019-02-24T09:39:19.441Z,15.72
2019-02-24T09:45:22.140Z,16.03
2019-02-24T09:48:30.528Z,16.54
2019-02-24T09:51:02.310Z,16.64
2019-02-24T09:53:52.189Z,16.59
2019-02-24T09:56:43.527Z,16.67
2019-02-24T09:59:47.765Z,16.75
2019-02-24T10:02:26.475Z,16.83
2019-02-24T10:05:18.461Z,16.84
2019-02-24T10:19:57.265Z,17.17
2019-02-24T10:25:58.277Z,16.99
2019-02-24T10:28:48.579Z,17.02
2019-02-24T10:31:39.315Z,16.96
2019-02-24T10:34:49.515Z,17.04
2019-02-24T10:37:21.834Z,17.14
2019-02-24T10:39:52.184Z,17.06
2019-02-24T10:45:27.604Z,17.32
2019-02-24T10:48:17.283Z,17.40
2019-02-24T10:53:39.122Z,17.58
2019-02-24T10:59:51.933Z,17.97
2019-02-24T11:02:32.290Z,17.97
2019-02-24T11:05:04.080Z,17.99
2019-02-24T11:07:56.575Z,18.13
2019-02-24T11:10:26.996Z,18.13
2019-02-24T11:13:29.436Z,18.30
2019-02-24T11:19:53.360Z,18.48
2019-02-24T11:22:14.817Z,18.49
2019-02-24T11:25:15.262Z,18.78
2019-02-24T11:27:58.994Z,18.77
2019-02-24T11:30:39.468Z,18.73
2019-02-24T11:36:12.230Z,19.07
2019-02-24T11:41:28.375Z,19.19
2019-02-24T11:44:00.320Z,19.27
2019-02-24T11:46:51.482Z,19.47
2019-02-24T11:50:01.095Z,19.59
2019-02-24T11:58:39.521Z,19.40
2019-02-24T12:01:10.620Z,19.42
2019-02-24T12:04:20.147Z,19.41
2019-02-24T12:07:05.838Z,19.57
2019-02-24T12:09:27.124Z,19.87
2019-02-24T12:12:36.829Z,19.75
2019-02-24T12:15:41.077Z,20.14
2019-02-24T12:18:33.591Z,20.28
2019-02-24T12:30:02.355Z,20.24
2019-02-24T12:32:53.212Z,20.41
2019-02-24T12:35:47.013Z,20.65
2019-02-24T12:38:38.253Z,20.76
2019-02-24T12:44:11.356Z,20.81
2019-02-24T12:46:43.423Z,20.88
2019-02-24T12:52:04.088Z,21.07
2019-02-24T12:57:35.924Z,20.69
2019-02-24T13:00:46.352Z,20.88
2019-02-24T13:06:25.084Z,21.27
2019-02-24T13:09:35.573Z,21.44
2019-02-24T13:12:27.359Z,21.57
2019-02-24T13:18:06.647Z,21.77
2019-02-24T13:20:37.414Z,21.83
2019-02-24T13:23:10.979Z,21.84
2019-02-24T13:25:43.207Z,21.84
2019-02-24T13:28:16.033Z,21.81
2019-02-24T13:30:47.175Z,21.69
2019-02-24T13:36:08.648Z,21.44
2019-02-24T13:42:14.182Z,21.60
2019-02-24T13:44:47.924Z,21.98
2019-02-24T13:47:56.336Z,22.05
2019-02-24T13:51:05.693Z,22.10
2019-02-24T13:53:46.872Z,22.25
2019-02-24T13:56:36.667Z,21.89
2019-02-24T14:02:33.808Z,21.80
2019-02-24T14:05:27.008Z,21.80
2019-02-24T14:08:17.448Z,22.03
2019-02-24T14:10:51.786Z,22.33
2019-02-24T14:13:33.579Z,22.36
2019-02-24T14:16:03.658Z,22.38
2019-02-24T14:21:46.442Z,22.43
2019-02-24T14:27:44.305Z,23.20
2019-02-24T14:30:05.250Z,23.35
2019-02-24T14:35:57.789Z,22.69
2019-02-24T14:38:38.481Z,22.50
2019-02-24T14:44:48.002Z,22.36
2019-02-24T14:47:37.500Z,22.37
2019-02-24T14:50:09.092Z,22.76
2019-02-24T14:52:43.402Z,22.22
2019-02-24T14:55:19.579Z,21.98
2019-02-24T14:57:53.181Z,21.99
2019-02-24T15:01:01.287Z,22.14
2019-02-24T15:03:35.361Z,22.18
2019-02-24T15:06:08.283Z,22.05
2019-02-24T15:08:41.948Z,22.01
2019-02-24T15:11:16.755Z,22.22
2019-02-24T15:13:51.849Z,21.85
2019-02-24T15:16:56.286Z,22.13
2019-02-24T15:19:37.384Z,22.28
2019-02-24T15:22:10.316Z,22.48
2019-02-24T15:24:59.492Z,22.48
2019-02-24T15:27:49.367Z,22.49
2019-02-24T15:30:24.261Z,22.50
2019-02-24T15:32:54.389Z,22.85
2019-02-24T15:35:46.625Z,22.24
2019-02-24T15:41:49.527Z,21.99
2019-02-24T15:45:10.999Z,21.90
2019-02-24T15:47:53.696Z,22.10
2019-02-24T15:56:34.939Z,22.59
2019-02-24T15:59:21.194Z,22.55
2019-02-24T16:02:00.670Z,22.42
2019-02-24T16:04:33.956Z,22.39
2019-02-24T16:07:07.812Z,22.37
2019-02-24T16:09:57.713Z,22.41
2019-02-24T16:16:09.728Z,22.42
2019-02-24T16:19:08.872Z,22.39
2019-02-24T16:21:59.179Z,22.39
2019-02-24T16:24:48.908Z,22.34
2019-02-24T16:27:41.065Z,22.07
2019-02-24T16:34:01.177Z,21.64
2019-02-24T16:36:54.910Z,21.31
2019-02-24T16:39:44.820Z,20.91
2019-02-24T16:42:35.332Z,20.60
2019-02-24T16:45:25.997Z,20.31
2019-02-24T16:48:00.292Z,20.04
2019-02-24T16:50:31.604Z,19.78
2019-02-24T16:53:23.163Z,19.84
2019-02-24T16:55:55.947Z,19.88
2019-02-24T16:58:28.547Z,19.74
2019-02-24T17:01:18.479Z,19.59
2019-02-24T17:07:19.948Z,19.22
2019-02-24T17:09:51.704Z,19.06
2019-02-24T17:12:44.545Z,18.96
2019-02-24T17:15:27.695Z,18.87
2019-02-24T17:24:49.296Z,18.59
2019-02-24T17:27:19.626Z,18.35
2019-02-24T17:29:51.548Z,18.11
2019-02-24T17:32:25.356Z,18.12
2019-02-24T17:34:57.599Z,17.96
2019-02-24T17:44:00.100Z,17.61
2019-02-24T17:46:25.307Z,17.39
2019-02-24T17:48:59.660Z,17.27
2019-02-24T17:51:45.405Z,17.25
2019-02-24T17:54:16.578Z,17.22
2019-02-24T17:56:48.500Z,17.38
2019-02-24T17:59:19.674Z,17.51
2019-02-24T18:02:09.773Z,17.52
2019-02-24T18:05:01.613Z,17.41
2019-02-24T18:13:50.816Z,17.28
2019-02-24T18:16:41.848Z,17.28
2019-02-24T18:19:34.115Z,17.19
2019-02-24T18:22:24.264Z,17.09
2019-02-24T18:25:03.248Z,17.15
2019-02-24T18:27:49.282Z,17.10
2019-02-24T18:30:25.196Z,16.88
2019-02-24T18:33:15.179Z,16.70
2019-02-24T18:36:08.265Z,16.74
2019-02-24T18:55:06.851Z,16.99
2019-02-24T19:00:42.006Z,16.95
2019-02-24T19:06:15.699Z,17.00
2019-02-24T19:12:16.814Z,17.07
2019-02-24T19:15:08.387Z,17.06
2019-02-24T19:17:59.374Z,16.96
2019-02-24T19:21:09.979Z,16.83
2019-02-24T19:23:42.967Z,16.74
2019-02-24T19:26:16.141Z,16.70
2019-02-24T19:28:47.944Z,16.64
2019-02-24T19:31:33.436Z,16.58
2019-02-24T19:40:10.169Z,16.42
2019-02-24T19:43:08.806Z,16.42
2019-02-24T19:52:33.739Z,16.69
2019-02-24T19:55:47.731Z,16.61
2019-02-24T19:58:17.517Z,16.78
2019-02-24T20:01:34.547Z,16.59
2019-02-24T20:03:50.642Z,16.39
2019-02-24T20:09:41.460Z,15.84
2019-02-24T20:12:14.506Z,15.46
2019-02-24T20:17:47.779Z,15.27
2019-02-24T20:20:45.850Z,15.07
2019-02-24T20:23:36.111Z,15.06
2019-02-24T20:26:16.225Z,15.13
2019-02-24T20:32:28.111Z,14.88
2019-02-24T20:35:01.873Z,14.84
2019-02-24T20:37:50.971Z,14.83
2019-02-24T20:40:43.036Z,14.68
2019-02-24T20:43:14.463Z,14.67
2019-02-24T20:46:06.178Z,14.58
2019-02-24T20:48:50.077Z,14.49
2019-02-24T20:54:34.510Z,14.33
2019-02-24T21:00:31.129Z,14.67
2019-02-24T21:03:04.066Z,14.69
2019-02-24T21:05:35.105Z,14.80
2019-02-24T21:08:24.976Z,14.76
2019-02-24T21:10:56.281Z,14.69
2019-02-24T21:13:47.131Z,14.70
2019-02-24T21:16:18.301Z,14.61
2019-02-24T21:19:04.108Z,14.61
2019-02-24T21:21:25.287Z,14.50
2019-02-24T21:23:58.150Z,14.48
2019-02-24T21:29:50.656Z,14.34
2019-02-24T21:32:44.289Z,14.51
2019-02-24T21:35:21.351Z,14.59
2019-02-24T21:37:56.879Z,14.65
2019-02-24T21:40:28.640Z,14.60
2019-02-24T21:43:04.170Z,14.61
2019-02-24T21:45:54.189Z,14.63
2019-02-24T21:48:30.721Z,14.68
2019-02-24T21:51:01.097Z,14.73
2019-02-24T21:57:09.385Z,14.89
2019-02-24T22:00:21.447Z,14.94
2019-02-24T22:02:37.206Z,15.06
2019-02-24T22:08:32.274Z,14.96
2019-02-24T22:11:23.767Z,14.94
2019-02-24T22:14:02.696Z,14.91
2019-02-24T22:16:56.529Z,14.80
2019-02-24T22:19:34.687Z,14.73
2019-02-24T22:22:45.380Z,14.67
2019-02-24T22:35:00.636Z,14.85
2019-02-24T22:41:12.504Z,14.75
2019-02-24T22:43:45.629Z,14.67
2019-02-24T22:49:47.600Z,14.47
2019-02-24T22:52:40.470Z,14.43
2019-02-24T22:55:11.042Z,14.31
2019-02-24T22:58:01.134Z,14.30
2019-02-24T23:00:54.192Z,14.23
2019-02-24T23:03:49.840Z,14.30
2019-02-24T23:06:21.006Z,14.22
2019-02-24T23:08:51.945Z,14.17
2019-02-24T23:11:43.033Z,14.06
2019-02-24T23:14:13.761Z,14.13
2019-02-24T23:17:17.029Z,14.07
2019-02-24T23:19:49.377Z,13.67
2019-02-24T23:22:14.806Z,13.75
2019-02-24T23:24:47.242Z,13.63
2019-02-24T23:27:18.558Z,13.74
2019-02-24T23:29:50.294Z,13.68
2019-02-24T23:35:33.998Z,13.52
2019-02-24T23:38:07.156Z,13.35
2019-02-24T23:40:38.454Z,13.28
2019-02-24T23:43:31.274Z,13.23
2019-02-24T23:46:16.943Z,13.15
2019-02-24T23:48:53.633Z,12.91
2019-02-24T23:51:25.433Z,12.85
2019-02-24T23:58:23.547Z,12.67
